Time;durP1;ratioP1;P1;durP2;ratioP2;P2;SDS_P1;SDS_P2;PMS_P1;PMS_P2;Temp;Humidity;BMP_temperature;BMP_pressure;BME280_temperature;BME280_humidity;BME280_pressure;Samples;Min_cycle;Max_cycle;Signal;HPM_P1;HPM_P2
2023/04/30 00:01:52;;;;;;;9.20;4.43;;;8.20;99.90;;;;;;5089891;28;20395;-58
2023/04/30 00:04:18;;;;;;;9.30;3.90;;;8.30;99.90;;;;;;5092102;28;20054;-57
2023/04/30 00:06:43;;;;;;;7.85;4.43;;;8.20;99.90;;;;;;5091137;28;20094;-57
2023/04/30 00:09:09;;;;;;;9.87;4.87;;;8.20;99.90;;;;;;5095316;28;20463;-58
2023/04/30 00:11:35;;;;;;;8.82;5.03;;;8.20;99.90;;;;;;5094314;27;20043;-58
2023/04/30 00:14:00;;;;;;;8.93;4.80;;;8.20;99.90;;;;;;5089937;28;20089;-56
2023/04/30 00:16:26;;;;;;;8.30;4.87;;;8.20;99.90;;;;;;5105167;28;20073;-57
2023/04/30 00:18:52;;;;;;;6.00;4.77;;;8.20;99.90;;;;;;5110478;28;20352;-58
2023/04/30 00:21:17;;;;;;;9.00;5.47;;;8.10;99.90;;;;;;5110450;28;20054;-57
2023/04/30 00:23:43;;;;;;;7.70;4.97;;;8.10;99.90;;;;;;5110020;28;20782;-56
2023/04/30 00:26:08;;;;;;;7.40;5.57;;;8.10;99.90;;;;;;5101082;28;20048;-55
2023/04/30 00:28:34;;;;;;;9.70;5.33;;;8.00;99.90;;;;;;5110759;28;20276;-58
2023/04/30 00:30:59;;;;;;;6.27;4.53;;;8.10;99.90;;;;;;5101254;28;20028;-57
2023/04/30 00:33:25;;;;;;;10.07;5.63;;;8.00;99.90;;;;;;5090351;28;20145;-58
2023/04/30 00:35:51;;;;;;;9.43;5.30;;;8.00;99.90;;;;;;5098089;28;20039;-57
2023/04/30 00:38:16;;;;;;;9.27;5.60;;;8.00;99.90;;;;;;5110779;27;20096;-58
2023/04/30 00:40:43;;;;;;;9.03;5.83;;;7.90;99.90;;;;;;5107409;28;20770;-58
2023/04/30 00:43:08;;;;;;;;;;;7.90;99.90;;;;;;5111784;28;20044;-57
2023/04/30 00:45:34;;;;;;;9.88;6.20;;;7.80;99.90;;;;;;5106518;28;19927;-57
2023/04/30 00:48:00;;;;;;;9.87;6.37;;;7.80;99.90;;;;;;5109980;28;20067;-58
2023/04/30 00:50:25;;;;;;;10.90;6.53;;;7.80;99.90;;;;;;5109019;28;20053;-57
2023/04/30 00:52:51;;;;;;;10.93;6.93;;;7.70;99.90;;;;;;5103970;28;20070;-56
2023/04/30 00:55:17;;;;;;;5.20;3.78;;;7.80;99.90;;;;;;5091459;28;20048;-57
2023/04/30 00:57:43;;;;;;;6.15;3.72;;;7.70;99.90;;;;;;5104816;28;20446;-57
2023/04/30 01:00:10;;;;;;;9.47;4.63;;;7.60;99.90;;;;;;5101466;28;20111;-56
2023/04/30 01:02:37;;;;;;;4.82;2.88;;;7.40;99.90;;;;;;5096053;28;20358;-56
2023/04/30 01:05:03;;;;;;;4.93;2.25;;;7.40;99.90;;;;;;5109222;28;20075;-57
2023/04/30 01:07:31;;;;;;;6.35;2.95;;;7.30;99.90;;;;;;5097772;28;20492;-55
2023/04/30 01:09:56;;;;;;;6.18;2.72;;;7.20;99.90;;;;;;5100923;28;20066;-56
2023/04/30 01:12:34;;;;;;;5.05;4.55;;;7.10;99.90;;;;;;5095476;28;20121;-58
2023/04/30 01:15:23;;;;;;;8.82;5.00;;;7.00;99.90;;;;;;5109490;28;20172;-57
2023/04/30 01:18:00;;;;;;;7.60;5.55;;;7.00;99.90;;;;;;5109345;28;20114;-57
2023/04/30 01:20:28;;;;;;;7.78;5.97;;;7.10;99.90;;;;;;5101021;28;20043;-56
2023/04/30 01:23:17;;;;;;;12.63;6.40;;;7.10;99.90;;;;;;5091195;28;20439;-56
2023/04/30 01:25:49;;;;;;;8.85;5.75;;;7.10;99.90;;;;;;5090217;28;20040;-57
2023/04/30 01:28:17;;;;;;;8.95;6.03;;;7.20;99.90;;;;;;5108550;28;20054;-57
2023/04/30 01:30:43;;;;;;;10.85;6.70;;;7.20;99.90;;;;;;5110202;28;20047;-57
2023/04/30 01:33:10;;;;;;;11.45;7.28;;;7.20;99.90;;;;;;5108651;28;20032;-58
2023/04/30 01:36:03;;;;;;;10.68;6.95;;;7.20;99.90;;;;;;5110038;28;20111;-57
2023/04/30 01:38:53;;;;;;;10.52;6.88;;;7.20;99.90;;;;;;5090454;28;20068;-57
2023/04/30 01:41:30;;;;;;;9.70;7.03;;;7.20;99.90;;;;;;5090432;28;20055;-58
2023/04/30 01:44:24;;;;;;;21.25;7.68;;;7.20;99.90;;;;;;5089990;28;20039;-57
2023/04/30 01:47:20;;;;;;;2.83;2.53;;;7.10;99.90;;;;;;5093371;28;20047;-58
2023/04/30 01:50:04;;;;;;;2.63;2.33;;;7.10;99.90;;;;;;5103970;28;20517;-57
2023/04/30 01:52:55;;;;;;;3.10;2.38;;;7.00;99.90;;;;;;5100505;28;20581;-57
2023/04/30 01:55:50;;;;;;;9.63;6.70;;;6.90;99.90;;;;;;5110314;28;20038;-57
2023/04/30 01:58:17;;;;;;;8.50;6.18;;;6.80;99.90;;;;;;5094416;28;20028;-55
2023/04/30 02:00:43;;;;;;;11.48;7.85;;;6.80;99.90;;;;;;5089232;28;20036;-57
2023/04/30 02:03:08;;;;;;;7.80;4.87;;;6.80;99.90;;;;;;5100398;28;20035;-61
2023/04/30 02:05:34;;;;;;;10.60;4.30;;;6.80;99.90;;;;;;5110135;28;20069;-55
2023/04/30 02:07:59;;;;;;;6.97;6.27;;;6.80;99.90;;;;;;5111907;28;20084;-56
2023/04/30 02:10:26;;;;;;;19.87;5.37;;;6.70;99.90;;;;;;5113891;28;20417;-57
2023/04/30 02:12:52;;;;;;;2.97;2.78;;;6.60;99.90;;;;;;5107032;28;20043;-58
2023/04/30 02:15:18;;;;;;;6.50;2.80;;;6.50;99.90;;;;;;5103417;28;20036;-58
2023/04/30 02:17:43;;;;;;;2.30;2.10;;;6.40;99.90;;;;;;5096976;28;20285;-58
2023/04/30 02:20:09;;;;;;;7.20;2.63;;;6.30;99.90;;;;;;5110990;28;20364;-58
2023/04/30 02:22:36;;;;;;;3.90;3.53;;;6.30;99.90;;;;;;5093660;28;20445;-60
2023/04/30 02:25:02;;;;;;;5.10;4.13;;;6.30;99.90;;;;;;5100189;28;20156;-58
2023/04/30 02:27:30;;;;;;;5.60;4.18;;;6.20;99.90;;;;;;5098713;28;20110;-57
2023/04/30 02:29:56;;;;;;;5.20;3.25;;;6.20;99.90;;;;;;5092557;28;20044;-58
2023/04/30 02:32:21;;;;;;;4.03;2.88;;;6.20;99.90;;;;;;5094544;28;20516;-57
2023/04/30 02:34:47;;;;;;;8.55;4.18;;;6.10;99.90;;;;;;5098348;28;20107;-57
2023/04/30 02:37:13;;;;;;;11.73;6.57;;;6.10;99.90;;;;;;5112339;28;20044;-57
2023/04/30 02:39:38;;;;;;;13.13;7.77;;;6.20;99.90;;;;;;5092964;28;20274;-57
2023/04/30 02:42:05;;;;;;;13.33;8.00;;;6.20;99.90;;;;;;5092167;28;20401;-58
2023/04/30 02:44:32;;;;;;;10.85;7.13;;;6.20;99.90;;;;;;5093479;28;20368;-57
2023/04/30 02:46:57;;;;;;;9.23;6.65;;;6.20;99.90;;;;;;5101677;28;20508;-58
2023/04/30 02:49:23;;;;;;;8.87;5.90;;;6.20;99.90;;;;;;5096820;28;20068;-57
2023/04/30 02:51:48;;;;;;;9.47;5.67;;;6.30;99.90;;;;;;5092980;28;20041;-58
2023/04/30 02:54:14;;;;;;;4.57;3.97;;;6.30;99.90;;;;;;5106109;28;20109;-57
2023/04/30 02:56:40;;;;;;;3.22;2.75;;;6.20;99.90;;;;;;5105756;27;20105;-55
2023/04/30 02:59:07;;;;;;;5.63;3.20;;;6.20;99.90;;;;;;5103492;28;20054;-57
2023/04/30 03:01:32;;;;;;;5.65;4.32;;;6.10;99.90;;;;;;5112904;28;20392;-58
2023/04/30 03:03:58;;;;;;;5.27;4.43;;;6.10;99.90;;;;;;5111331;28;20043;-57
2023/04/30 03:06:24;;;;;;;9.70;6.07;;;6.00;99.90;;;;;;5108443;28;20052;-55
2023/04/30 03:08:49;;;;;;;3.17;2.87;;;6.10;99.90;;;;;;5099438;28;20031;-57
2023/04/30 03:11:15;;;;;;;2.33;2.13;;;6.00;99.90;;;;;;5112870;27;20077;-56
2023/04/30 03:13:42;;;;;;;7.78;4.03;;;5.90;99.90;;;;;;5109593;28;20495;-57
2023/04/30 03:16:08;;;;;;;8.40;4.70;;;5.90;99.90;;;;;;5111059;28;20404;-57
2023/04/30 03:18:33;;;;;;;6.50;5.37;;;5.80;99.90;;;;;;5095338;28;20032;-57
2023/04/30 03:20:59;;;;;;;12.88;7.03;;;5.80;99.90;;;;;;5112627;28;20545;-60
2023/04/30 03:23:28;;;;;;;5.37;4.60;;;5.80;99.90;;;;;;5108721;28;20059;-58
2023/04/30 03:25:53;;;;;;;9.07;6.85;;;5.80;99.90;;;;;;5092164;28;20047;-57
2023/04/30 03:28:19;;;;;;;11.80;7.20;;;5.80;99.90;;;;;;5108877;28;20385;-56
2023/04/30 03:30:45;;;;;;;7.68;6.80;;;5.80;99.90;;;;;;5092272;28;20161;-57
2023/04/30 03:33:11;;;;;;;7.88;5.80;;;5.80;99.90;;;;;;5092298;28;20050;-56
2023/04/30 03:35:37;;;;;;;6.67;5.97;;;5.70;99.90;;;;;;5092975;28;20047;-58
2023/04/30 03:38:02;;;;;;;6.93;6.17;;;5.70;99.90;;;;;;5091853;28;20412;-57
2023/04/30 03:40:28;;;;;;;11.40;7.73;;;5.70;99.90;;;;;;5109886;28;20169;-57
2023/04/30 03:42:54;;;;;;;8.73;7.27;;;5.70;99.90;;;;;;5111776;27;20078;-57
2023/04/30 03:45:19;;;;;;;10.07;6.72;;;5.70;99.90;;;;;;5094572;28;20032;-58
2023/04/30 03:47:45;;;;;;;2.60;2.00;;;5.70;99.90;;;;;;5091365;28;20032;-57
2023/04/30 03:50:11;;;;;;;4.53;4.13;;;5.60;99.90;;;;;;5106158;28;20043;-57
2023/04/30 03:52:36;;;;;;;16.03;10.60;;;5.60;99.90;;;;;;5111835;28;20035;-57
2023/04/30 03:55:03;;;;;;;10.50;7.90;;;5.60;99.90;;;;;;5110577;28;20876;-57
2023/04/30 03:57:29;;;;;;;12.27;7.82;;;5.50;99.90;;;;;;5110652;28;20074;-58
2023/04/30 03:59:55;;;;;;;9.63;8.00;;;5.50;99.90;;;;;;5101065;28;20024;-57
2023/04/30 04:02:20;;;;;;;14.68;9.68;;;5.50;99.90;;;;;;5091144;28;20028;-57
2023/04/30 04:04:47;;;;;;;11.57;8.13;;;5.50;99.90;;;;;;5099639;28;20027;-57
2023/04/30 04:07:13;;;;;;;9.32;7.63;;;5.60;99.90;;;;;;5091072;28;20048;-57
2023/04/30 04:09:39;;;;;;;10.80;8.07;;;5.50;99.90;;;;;;5098363;28;20089;-57
2023/04/30 04:12:05;;;;;;;10.48;7.82;;;5.50;99.90;;;;;;5110646;28;20044;-58
2023/04/30 04:14:30;;;;;;;11.43;9.25;;;5.50;99.90;;;;;;5109661;28;20031;-55
2023/04/30 04:16:59;;;;;;;18.60;9.70;;;5.50;99.90;;;;;;5111652;28;20458;-57
2023/04/30 04:19:25;;;;;;;12.82;8.00;;;5.50;99.90;;;;;;5106399;28;20105;-56
2023/04/30 04:21:51;;;;;;;9.40;8.50;;;5.50;99.90;;;;;;5090695;28;20101;-57
2023/04/30 04:24:17;;;;;;;11.53;7.83;;;5.60;99.90;;;;;;5092208;28;20523;-57
2023/04/30 04:26:42;;;;;;;12.57;8.53;;;5.60;99.90;;;;;;5111064;28;20149;-57
2023/04/30 04:29:09;;;;;;;8.17;5.73;;;5.60;99.90;;;;;;5110523;28;20269;-57
2023/04/30 04:31:35;;;;;;;8.57;5.80;;;5.60;99.90;;;;;;5089891;28;20031;-58
2023/04/30 04:34:03;;;;;;;9.50;7.75;;;5.60;99.90;;;;;;5103591;28;20415;-57
2023/04/30 04:36:29;;;;;;;12.15;9.30;;;5.60;99.90;;;;;;5091301;28;20051;-57
2023/04/30 04:39:01;;;;;;;14.35;7.82;;;5.60;99.90;;;;;;5096458;28;20042;-57
2023/04/30 04:41:31;;;;;;;13.18;8.52;;;5.60;99.90;;;;;;5106314;28;20056;-57
2023/04/30 04:43:57;;;;;;;13.05;8.68;;;5.70;99.90;;;;;;5103795;28;20556;-57
2023/04/30 04:46:24;;;;;;;12.55;9.43;;;5.70;99.90;;;;;;5090572;28;20040;-56
2023/04/30 04:48:50;;;;;;;12.57;8.50;;;5.70;99.90;;;;;;5090016;28;20089;-58
2023/04/30 04:51:15;;;;;;;20.65;10.25;;;5.80;99.90;;;;;;5095958;28;20071;-57
2023/04/30 04:53:41;;;;;;;7.53;6.80;;;5.80;99.90;;;;;;5090728;28;20094;-58
2023/04/30 04:56:07;;;;;;;16.40;10.07;;;5.90;99.90;;;;;;5102150;28;20488;-57
2023/04/30 04:58:33;;;;;;;10.80;9.57;;;5.90;99.90;;;;;;5109746;28;20412;-57
2023/04/30 05:00:59;;;;;;;9.73;8.73;;;6.00;99.90;;;;;;5099786;28;20046;-57
2023/04/30 05:03:29;;;;;;;17.30;9.70;;;6.00;99.90;;;;;;5090170;28;20032;-56
2023/04/30 05:05:55;;;;;;;11.38;9.48;;;6.10;99.90;;;;;;5097772;28;20094;-57
2023/04/30 05:08:21;;;;;;;17.65;11.00;;;6.10;99.90;;;;;;5110441;28;20503;-57
2023/04/30 05:10:47;;;;;;;14.70;9.80;;;6.20;99.90;;;;;;5103073;28;20115;-58
2023/04/30 05:13:12;;;;;;;20.15;10.18;;;6.20;99.90;;;;;;5090274;28;20040;-56
2023/04/30 05:15:38;;;;;;;15.67;9.73;;;6.30;99.90;;;;;;5094319;28;20059;-57
2023/04/30 05:18:04;;;;;;;22.63;10.60;;;6.40;99.90;;;;;;5110280;28;20036;-55
2023/04/30 05:20:29;;;;;;;16.80;10.80;;;6.50;99.90;;;;;;5106851;28;20144;-56
2023/04/30 05:22:55;;;;;;;16.27;10.07;;;6.50;99.90;;;;;;5089221;28;20122;-58
2023/04/30 05:25:20;;;;;;;14.73;9.83;;;6.50;99.90;;;;;;5090888;28;20290;-56
2023/04/30 05:27:46;;;;;;;15.30;9.50;;;6.50;99.90;;;;;;5089950;28;20067;-57
2023/04/30 05:30:11;;;;;;;15.50;10.50;;;6.60;99.90;;;;;;5090011;28;20059;-58
2023/04/30 05:32:37;;;;;;;18.98;10.50;;;6.70;99.90;;;;;;5109491;28;20027;-57
2023/04/30 05:35:03;;;;;;;14.83;10.20;;;6.70;99.90;;;;;;5092142;28;20085;-56
2023/04/30 05:37:28;;;;;;;15.25;10.38;;;6.80;99.90;;;;;;5105106;28;20501;-58
2023/04/30 05:39:54;;;;;;;25.33;9.87;;;6.90;99.90;;;;;;5101636;28;20024;-58
2023/04/30 05:42:20;;;;;;;15.05;9.52;;;7.00;99.90;;;;;;5110282;28;20484;-57
2023/04/30 05:44:46;;;;;;;13.18;9.68;;;7.00;99.90;;;;;;5101112;28;20068;-58
2023/04/30 05:47:12;;;;;;;15.00;9.57;;;7.10;99.90;;;;;;5100779;28;20059;-57
2023/04/30 05:49:38;;;;;;;12.43;9.47;;;7.10;99.90;;;;;;5093798;28;20032;-56
2023/04/30 05:52:04;;;;;;;12.40;7.27;;;7.20;99.90;;;;;;5113023;28;20042;-56
2023/04/30 05:54:30;;;;;;;15.00;7.78;;;7.30;99.90;;;;;;5107827;28;20028;-57
2023/04/30 05:56:55;;;;;;;17.55;8.38;;;7.50;99.90;;;;;;5099504;28;20055;-57
2023/04/30 05:59:21;;;;;;;12.75;6.40;;;7.60;99.90;;;;;;5104010;28;20036;-58
2023/04/30 06:01:47;;;;;;;10.95;5.65;;;7.70;99.90;;;;;;5093970;28;20454;-57
2023/04/30 06:04:12;;;;;;;10.17;5.27;;;7.90;99.90;;;;;;5093468;28;20036;-56
2023/04/30 06:06:38;;;;;;;13.00;6.28;;;8.00;99.90;;;;;;5100862;28;20039;-57
2023/04/30 06:09:03;;;;;;;13.30;5.83;;;8.10;99.90;;;;;;5113197;28;20062;-57
2023/04/30 06:11:29;;;;;;;12.90;6.87;;;8.20;99.90;;;;;;5108272;28;20065;-58
2023/04/30 06:13:55;;;;;;;11.00;6.13;;;8.20;99.90;;;;;;5093500;28;20569;-58
2023/04/30 06:16:22;;;;;;;14.75;4.80;;;8.40;99.90;;;;;;5111751;28;20111;-57
2023/04/30 06:18:47;;;;;;;11.13;4.50;;;8.40;99.90;;;;;;5113493;28;20047;-58
2023/04/30 06:21:13;;;;;;;16.67;4.90;;;8.60;99.90;;;;;;5110725;28;20047;-57
2023/04/30 06:23:38;;;;;;;10.57;4.13;;;8.60;99.90;;;;;;5092047;28;20278;-57
2023/04/30 06:26:04;;;;;;;13.47;4.03;;;8.70;99.90;;;;;;5093280;28;20044;-58
2023/04/30 06:28:30;;;;;;;14.25;4.30;;;8.80;99.90;;;;;;5112644;28;20284;-57
2023/04/30 06:30:56;;;;;;;13.10;4.40;;;8.80;99.90;;;;;;5113538;28;20108;-58
2023/04/30 06:33:21;;;;;;;11.63;4.47;;;8.80;99.90;;;;;;5094241;28;20040;-57
2023/04/30 06:35:49;;;;;;;14.53;4.40;;;8.90;99.90;;;;;;5109313;28;20032;-57
2023/04/30 06:38:16;;;;;;;14.40;4.18;;;9.00;99.90;;;;;;5106297;28;20286;-54
2023/04/30 06:40:42;;;;;;;16.20;3.85;;;9.10;99.90;;;;;;5105958;28;20067;-53
2023/04/30 06:43:07;;;;;;;9.50;4.13;;;9.20;99.90;;;;;;5095515;28;20068;-53
2023/04/30 06:45:34;;;;;;;17.40;4.33;;;9.30;99.90;;;;;;5105177;28;20035;-54
2023/04/30 06:47:59;;;;;;;13.93;4.60;;;9.40;99.90;;;;;;5105369;28;20031;-55
2023/04/30 06:50:25;;;;;;;9.93;3.90;;;9.50;99.90;;;;;;5100712;27;20088;-57
2023/04/30 06:52:51;;;;;;;10.02;5.00;;;9.50;99.90;;;;;;5110773;28;20032;-58
2023/04/30 06:55:16;;;;;;;12.33;5.13;;;9.60;99.90;;;;;;5092695;28;20078;-57
2023/04/30 06:57:42;;;;;;;31.35;5.10;;;9.60;99.90;;;;;;5101881;28;20039;-56
2023/04/30 07:00:08;;;;;;;112.67;13.30;;;9.60;99.90;;;;;;5100374;28;20114;-54
2023/04/30 07:02:34;;;;;;;170.00;19.23;;;9.60;99.90;;;;;;5103945;28;20043;-56
2023/04/30 07:05:00;;;;;;;25.13;4.93;;;9.60;99.90;;;;;;5097512;28;20047;-54
2023/04/30 07:07:26;;;;;;;16.57;4.13;;;9.60;99.90;;;;;;5106501;28;20032;-56
2023/04/30 07:09:52;;;;;;;10.18;2.78;;;9.60;99.90;;;;;;5103140;28;20046;-53
2023/04/30 07:12:19;;;;;;;14.82;3.42;;;9.70;99.90;;;;;;5092032;28;20529;-54
2023/04/30 07:14:44;;;;;;;16.45;3.53;;;9.70;99.90;;;;;;5092334;28;20543;-52
2023/04/30 07:17:10;;;;;;;17.33;4.83;;;9.80;99.90;;;;;;5112964;28;20036;-55
2023/04/30 07:19:36;;;;;;;15.43;4.00;;;9.80;99.90;;;;;;5101722;28;20382;-54
2023/04/30 07:22:01;;;;;;;9.75;3.17;;;9.80;99.90;;;;;;5095269;28;20295;-55
2023/04/30 07:24:27;;;;;;;12.43;4.03;;;9.80;99.90;;;;;;5098540;28;20077;-51
2023/04/30 07:26:53;;;;;;;8.65;3.42;;;9.90;99.90;;;;;;5110174;28;20075;-52
2023/04/30 07:29:19;;;;;;;10.43;3.20;;;9.90;99.90;;;;;;5105733;28;20074;-55
2023/04/30 07:31:44;;;;;;;12.05;3.42;;;10.00;99.90;;;;;;5107404;28;20522;-53
2023/04/30 07:34:10;;;;;;;10.82;2.63;;;10.00;99.90;;;;;;5109194;28;20027;-52
2023/04/30 07:36:37;;;;;;;16.83;3.08;;;10.10;99.90;;;;;;5091698;28;20100;-52
2023/04/30 07:39:04;;;;;;;11.55;3.28;;;10.10;99.90;;;;;;5091424;28;20473;-52
2023/04/30 07:41:30;;;;;;;21.80;4.35;;;10.20;99.90;;;;;;5103421;28;20051;-53
2023/04/30 07:43:55;;;;;;;17.25;3.97;;;10.30;99.90;;;;;;5111258;28;20108;-53
2023/04/30 07:46:21;;;;;;;9.93;2.97;;;10.30;99.90;;;;;;5104102;28;20441;-55
2023/04/30 07:48:47;;;;;;;18.15;3.17;;;10.30;99.90;;;;;;5111719;28;20125;-54
2023/04/30 07:51:12;;;;;;;13.80;2.73;;;10.30;99.90;;;;;;5100692;28;20040;-52
2023/04/30 07:53:38;;;;;;;11.83;2.70;;;10.30;99.90;;;;;;5112460;28;20326;-59
2023/04/30 07:56:04;;;;;;;12.97;3.10;;;10.40;99.90;;;;;;5103481;28;20043;-54
2023/04/30 07:58:29;;;;;;;12.48;3.35;;;10.50;99.90;;;;;;5091408;28;20043;-54
2023/04/30 08:00:55;;;;;;;8.77;2.43;;;10.50;99.90;;;;;;5101020;28;20113;-53
2023/04/30 08:03:21;;;;;;;7.38;2.22;;;10.60;99.90;;;;;;5091351;28;20544;-52
2023/04/30 08:05:46;;;;;;;10.60;2.80;;;10.70;99.90;;;;;;5092358;28;20035;-53
2023/04/30 08:08:12;;;;;;;13.67;2.20;;;10.80;99.90;;;;;;5090691;28;20032;-53
2023/04/30 08:10:38;;;;;;;7.07;2.70;;;10.80;99.90;;;;;;5091387;28;20278;-53
2023/04/30 08:13:04;;;;;;;11.05;3.10;;;10.90;99.90;;;;;;5111563;28;20043;-55
2023/04/30 08:15:30;;;;;;;11.02;2.45;;;11.10;99.90;;;;;;5110403;28;20039;-55
2023/04/30 08:17:55;;;;;;;10.82;3.42;;;11.20;99.90;;;;;;5108017;28;20039;-52
2023/04/30 08:20:22;;;;;;;10.40;2.07;;;11.20;99.90;;;;;;5102980;28;20043;-57
2023/04/30 08:22:48;;;;;;;12.35;1.90;;;11.30;99.90;;;;;;5108367;28;20704;-58
2023/04/30 08:25:13;;;;;;;9.27;1.95;;;11.40;99.90;;;;;;5108613;27;20043;-58
2023/04/30 08:27:39;;;;;;;5.93;1.90;;;11.40;99.90;;;;;;5107621;28;20404;-59
2023/04/30 08:30:06;;;;;;;13.85;1.63;;;11.50;99.90;;;;;;5095948;28;20035;-57
2023/04/30 08:32:35;;;;;;;9.25;2.88;;;11.60;99.90;;;;;;5104211;28;20047;-58
2023/04/30 08:35:04;;;;;;;8.77;1.67;;;11.60;99.90;;;;;;5104640;28;20048;-58
2023/04/30 08:37:30;;;;;;;7.82;2.13;;;11.70;99.90;;;;;;5100289;28;20095;-57
2023/04/30 08:39:56;;;;;;;6.70;2.30;;;11.70;99.90;;;;;;5082570;28;20500;-59
2023/04/30 08:42:28;;;;;;;5.57;2.63;;;11.80;99.90;;;;;;5092674;28;20036;-56
2023/04/30 08:44:54;;;;;;;13.82;3.63;;;11.80;99.90;;;;;;5100614;28;20028;-57
2023/04/30 08:47:20;;;;;;;6.97;2.33;;;11.80;99.90;;;;;;5096025;28;20489;-58
2023/04/30 08:49:46;;;;;;;11.38;3.15;;;11.90;99.90;;;;;;5106685;27;20032;-58
2023/04/30 08:52:12;;;;;;;11.05;2.67;;;12.00;99.90;;;;;;5101378;28;20046;-57
2023/04/30 08:54:38;;;;;;;9.45;2.55;;;12.10;99.90;;;;;;5096935;28;20040;-57
2023/04/30 08:57:04;;;;;;;7.30;2.22;;;12.20;99.90;;;;;;5102870;28;20485;-57
2023/04/30 08:59:30;;;;;;;14.30;4.18;;;12.20;99.90;;;;;;5096440;28;20114;-58
2023/04/30 09:01:56;;;;;;;4.55;1.35;;;12.30;99.90;;;;;;5100119;28;20556;-57
2023/04/30 09:04:21;;;;;;;11.23;2.95;;;12.30;99.90;;;;;;5101016;28;20039;-57
2023/04/30 09:06:47;;;;;;;4.57;1.80;;;12.40;99.90;;;;;;5106252;28;20094;-58
2023/04/30 09:09:15;;;;;;;8.13;2.07;;;12.50;99.90;;;;;;5099018;28;20066;-57
2023/04/30 09:11:41;;;;;;;7.93;1.98;;;12.50;99.90;;;;;;5110386;28;20277;-56
2023/04/30 09:14:07;;;;;;;9.55;2.97;;;12.50;99.90;;;;;;5095099;28;20036;-59
2023/04/30 09:16:47;;;;;;;6.25;2.33;;;12.60;99.90;;;;;;5105608;28;20032;-58
2023/04/30 09:19:27;;;;;;;8.52;2.60;;;12.60;99.90;;;;;;5110057;28;20039;-58
2023/04/30 09:21:53;;;;;;;7.38;2.40;;;12.60;99.90;;;;;;5108727;28;20494;-58
2023/04/30 09:24:19;;;;;;;;;;;12.70;99.90;;;;;;5103399;28;20036;-56
2023/04/30 09:26:46;;;;;;;10.90;1.70;;;12.70;99.90;;;;;;5100013;28;20304;-58
2023/04/30 09:29:12;;;;;;;10.02;2.30;;;12.80;99.90;;;;;;5097212;28;20043;-58
2023/04/30 09:31:40;;;;;;;12.15;1.98;;;12.90;99.90;;;;;;5095792;28;20036;-59
2023/04/30 09:34:05;;;;;;;9.30;2.15;;;13.00;99.90;;;;;;5090658;28;20040;-58
2023/04/30 09:36:32;;;;;;;8.15;1.98;;;13.00;99.90;;;;;;5110671;28;20051;-59
2023/04/30 09:39:17;;;;;;;4.93;2.15;;;13.10;99.90;;;;;;5104004;28;20148;-58
2023/04/30 09:41:43;;;;;;;10.75;1.27;;;13.20;99.90;;;;;;5090092;28;20441;-57
2023/04/30 09:44:28;;;;;;;;;;;13.20;99.90;;;;;;5100497;28;20115;-59
2023/04/30 09:46:56;;;;;;;11.32;2.00;;;13.30;99.90;;;;;;5110395;28;20558;-58
2023/04/30 09:49:21;;;;;;;4.93;1.98;;;13.30;99.90;;;;;;5097729;28;20513;-58
2023/04/30 09:51:58;;;;;;;7.78;1.60;;;13.40;99.90;;;;;;5088828;28;20063;-58
2023/04/30 09:54:31;;;;;;;10.48;2.65;;;13.40;99.90;;;;;;5100506;28;20035;-58
2023/04/30 09:57:00;;;;;;;6.22;1.83;;;13.50;99.90;;;;;;5109396;28;20496;-58
2023/04/30 09:59:38;;;;;;;8.70;2.65;;;13.50;99.90;;;;;;5098248;28;20531;-58
2023/04/30 10:02:05;;;;;;;5.57;1.73;;;13.50;99.90;;;;;;5098014;28;20040;-59
2023/04/30 10:04:36;;;;;;;8.07;2.30;;;13.50;99.90;;;;;;5103528;28;20073;-60
2023/04/30 10:07:14;;;;;;;6.40;2.30;;;13.60;99.90;;;;;;5092074;28;20047;-59
2023/04/30 10:10:07;;;;;;;8.70;2.25;;;13.60;99.90;;;;;;5094496;28;20048;-58
2023/04/30 10:12:41;;;;;;;5.38;2.13;;;13.70;99.90;;;;;;5095735;28;20031;-58
2023/04/30 10:15:29;;;;;;;8.13;2.42;;;13.70;99.90;;;;;;5098073;28;20067;-58
2023/04/30 10:18:07;;;;;;;4.47;1.80;;;13.80;99.90;;;;;;5097309;28;20098;-57
2023/04/30 10:20:38;;;;;;;6.35;2.28;;;13.70;99.90;;;;;;5107600;28;20366;-58
2023/04/30 10:23:05;;;;;;;6.25;2.30;;;13.80;99.90;;;;;;5110191;28;20039;-57
2023/04/30 10:25:31;;;;;;;5.10;1.98;;;13.80;99.90;;;;;;5108128;28;20075;-56
2023/04/30 10:27:57;;;;;;;11.98;2.38;;;13.90;99.90;;;;;;5107920;28;20074;-59
2023/04/30 10:30:23;;;;;;;8.50;2.42;;;13.90;99.90;;;;;;5095846;28;20408;-57
2023/04/30 10:32:58;;;;;;;5.85;2.90;;;14.00;99.90;;;;;;5097255;28;20556;-61
2023/04/30 10:35:40;;;;;;;7.68;2.53;;;14.00;99.90;;;;;;5112703;28;20409;-59
2023/04/30 10:38:26;;;;;;;13.93;2.65;;;14.10;99.90;;;;;;5100734;28;20141;-59
2023/04/30 10:40:57;;;;;;;13.10;2.45;;;14.20;99.90;;;;;;5097488;28;20050;-60
2023/04/30 10:43:26;;;;;;;8.88;2.10;;;14.40;99.90;;;;;;5108810;28;20036;-60
2023/04/30 10:45:52;;;;;;;8.13;1.77;;;14.50;99.90;;;;;;5098445;28;20051;-60
2023/04/30 10:48:24;;;;;;;4.30;1.38;;;14.70;99.90;;;;;;5100342;28;20058;-59
2023/04/30 10:50:51;;;;;;;6.80;1.90;;;14.80;99.90;;;;;;5103657;28;20558;-59
2023/04/30 10:53:19;;;;;;;4.38;1.88;;;15.00;99.90;;;;;;5092312;28;20044;-58
2023/04/30 10:55:48;;;;;;;4.80;2.00;;;15.10;99.90;;;;;;5092913;28;20040;-59
2023/04/30 10:58:30;;;;;;;7.47;1.50;;;15.30;99.80;;;;;;5090980;28;20485;-59
2023/04/30 11:01:14;;;;;;;4.50;2.22;;;15.40;99.40;;;;;;5091556;28;20086;-59
2023/04/30 11:03:41;;;;;;;4.18;1.05;;;15.50;98.90;;;;;;5091956;28;20441;-59
2023/04/30 11:06:18;;;;;;;6.78;1.85;;;15.50;99.20;;;;;;5092610;28;20409;-59
2023/04/30 11:08:45;;;;;;;;;;;15.60;98.80;;;;;;5092343;28;20039;-60
2023/04/30 11:11:13;;;;;;;7.97;1.60;;;15.50;97.50;;;;;;5092802;28;19923;-60
2023/04/30 11:13:58;;;;;;;6.95;1.90;;;15.50;98.50;;;;;;5092358;28;20100;-60
2023/04/30 11:16:47;;;;;;;8.13;2.67;;;15.50;98.60;;;;;;5092784;28;20036;-60
2023/04/30 11:19:13;;;;;;;7.03;2.05;;;15.60;98.00;;;;;;5091848;28;20046;-60
2023/04/30 11:21:40;;;;;;;5.03;1.90;;;15.60;98.60;;;;;;5092356;28;20040;-59
2023/04/30 11:24:06;;;;;;;4.82;1.77;;;15.60;98.50;;;;;;5092059;28;20718;-60
2023/04/30 11:27:07;;;;;;;7.25;1.75;;;15.60;98.20;;;;;;5091719;28;20047;-58
2023/04/30 11:29:33;;;;;;;3.90;1.27;;;15.70;98.40;;;;;;5091800;28;20036;-60
2023/04/30 11:32:03;;;;;;;4.32;1.50;;;15.80;98.40;;;;;;5092022;28;20610;-59
2023/04/30 11:34:30;;;;;;;7.15;1.88;;;15.80;98.00;;;;;;5092370;28;20085;-58
2023/04/30 11:36:57;;;;;;;;;;;15.80;97.80;;;;;;5091830;28;20044;-60
2023/04/30 11:39:25;;;;;;;8.38;1.92;;;15.90;97.10;;;;;;5091149;28;20003;-59
2023/04/30 11:41:51;;;;;;;1.88;1.05;;;16.00;97.60;;;;;;5091860;28;20047;-60
2023/04/30 11:44:25;;;;;;;8.18;1.95;;;16.00;97.80;;;;;;5091972;28;20157;-59
2023/04/30 11:46:51;;;;;;;3.47;1.85;;;16.10;98.10;;;;;;5091933;28;20044;-60
2023/04/30 11:49:19;;;;;;;6.55;1.48;;;16.20;97.60;;;;;;5091115;28;20032;-60
2023/04/30 11:51:48;;;;;;;2.83;1.10;;;16.20;97.20;;;;;;5091924;28;20051;-60
2023/04/30 11:54:14;;;;;;;3.05;0.93;;;16.30;97.50;;;;;;5091682;28;20479;-59
2023/04/30 11:56:47;;;;;;;2.17;1.13;;;16.40;97.60;;;;;;5091642;28;20051;-60
2023/04/30 11:59:13;;;;;;;7.15;1.10;;;16.50;97.30;;;;;;5091421;28;20059;-60
2023/04/30 12:01:40;;;;;;;3.05;1.38;;;16.50;96.90;;;;;;5091719;28;20177;-60
2023/04/30 12:04:07;;;;;;;4.38;1.30;;;16.50;96.90;;;;;;5091258;28;20052;-60
2023/04/30 12:06:33;;;;;;;2.92;1.10;;;16.50;96.80;;;;;;5091491;28;20097;-59
2023/04/30 12:09:02;;;;;;;3.40;1.45;;;16.50;96.70;;;;;;5091148;28;20511;-59
2023/04/30 12:11:30;;;;;;;8.20;1.70;;;16.50;96.60;;;;;;5091353;28;20036;-60
2023/04/30 12:13:57;;;;;;;8.75;1.40;;;16.50;97.00;;;;;;5091738;28;20036;-60
2023/04/30 12:16:27;;;;;;;5.75;1.60;;;16.60;96.90;;;;;;5090830;28;20047;-60
2023/04/30 12:18:54;;;;;;;4.97;0.93;;;16.60;96.70;;;;;;5090874;28;20048;-59
2023/04/30 12:21:21;;;;;;;4.07;1.60;;;16.70;97.00;;;;;;5091178;28;20074;-59
2023/04/30 12:23:47;;;;;;;4.30;1.70;;;16.70;96.60;;;;;;5091213;28;20206;-59
2023/04/30 12:26:13;;;;;;;4.50;1.40;;;16.70;96.40;;;;;;5090717;28;20136;-60
2023/04/30 12:28:38;;;;;;;3.47;1.10;;;16.60;95.90;;;;;;5090688;28;20036;-60
2023/04/30 12:31:04;;;;;;;2.30;1.10;;;16.70;96.40;;;;;;5090392;28;20040;-60
2023/04/30 12:33:31;;;;;;;3.25;1.00;;;16.70;96.80;;;;;;5091054;28;20076;-60
2023/04/30 12:35:59;;;;;;;2.40;0.70;;;16.80;96.70;;;;;;5090887;28;20412;-60
2023/04/30 12:38:25;;;;;;;2.03;1.08;;;17.00;96.80;;;;;;5090519;28;20044;-59
2023/04/30 12:40:51;;;;;;;7.20;1.23;;;17.10;96.30;;;;;;5090631;28;20157;-60
2023/04/30 12:43:17;;;;;;;4.50;1.02;;;17.20;96.00;;;;;;5091189;28;20032;-60
2023/04/30 12:46:01;;;;;;;2.92;1.02;;;17.20;96.20;;;;;;5090138;28;20404;-59
2023/04/30 12:48:27;;;;;;;2.08;0.90;;;17.30;95.80;;;;;;5090616;28;20047;-59
2023/04/30 12:50:55;;;;;;;2.55;1.05;;;17.30;95.50;;;;;;5090455;28;20036;-60
2023/04/30 12:53:21;;;;;;;3.35;0.80;;;17.30;96.30;;;;;;5088632;28;20116;-59
2023/04/30 12:56:06;;;;;;;3.70;1.13;;;17.30;96.30;;;;;;5089233;28;20470;-59